AirNav   Pilot Hours Calculator
 
 989 users online  

7IL7 Edward Getzelman Airport
Hampshire, Illinois, USA

GOING TO HAMPSHIRE?


FAA INFORMATION EFFECTIVE 01 DECEMBER 2022

Location

FAA Identifier: 7IL7
Lat/Long: 42-07-36.0880N 088-32-00.3140W
42-07.601467N 088-32.005233W
42.1266911,-88.5334206
(estimated)
Elevation: 870 ft. / 265 m (estimated)
Variation: 00W (1985)
From city: 2 miles N of HAMPSHIRE, IL
Time zone: UTC -6 (UTC -5 during Daylight Saving Time)
Zip code: 60140

Airport Operations

Airport use: Private use. Permission required prior to landing
Activation date: 11/1973
Control tower: no
ARTCC: CHICAGO CENTER
FSS: KANKAKEE FLIGHT SERVICE STATION
Attendance: UNATNDD
Wind indicator: yes
Segmented circle: no

Airport Communications

WX AWOS-3 at DKB (14 nm SW): 119.075 (815-748-2350)
WX ASOS at DPA (18 nm SE): PHONE 630-587-3668

Nearby radio navigation aids

VOR radial/distance  VOR name  Freq  Var
DPAr328/16.4DUPAGE VOR/DME108.4002E
OBKr260/26.5NORTHBROOK VOR/DME113.0002W
JOTr343/36.1JOLIET VOR/DME112.3002E
JVLr133/36.2JANESVILLE VOR/DME114.3003E

Airport Services

Airframe service: NONE
Powerplant service: NONE

Runway Information

Runway N/S

Dimensions: 1900 x 70 ft. / 579 x 21 m
Surface: turf
RUNWAY N  RUNWAY S
Traffic pattern: leftleft
Obstructions: trees enone

Airport Ownership and Management from official FAA records

Ownership: Privately-owned
Owner: EDWARD L. GETZELMAN
46W861 BIG TIMBER RD
HAMPSHIRE, IL 60140
Phone (847) 254-2238
847-254-2238 CELL

Airport Operational Statistics

Aircraft based on the field: 1
Single engine airplanes: 1
    

Additional Remarks

FOR CD CTC CHICAGO APCH AT 847-289-0926.

Instrument Procedures

There are no published instrument procedures at 7IL7.

Some nearby airports with instrument procedures:

3CK - Lake in the Hills Airport (11 nm NE)
KDKB - De Kalb Taylor Municipal Airport (14 nm SW)
C77 - Poplar Grove Airport (18 nm NW)
10C - Galt Field Airport (18 nm NE)
KDPA - DuPage Airport (18 nm SE)
 
Loc | Ops | Rwys | IFR | FBO | Links
Com | Nav | Svcs | Stats | Notes
Area around 7IL7 (Edward Getzelman Airport)
 
Road maps at: MapQuest Bing Google
 
Aerial photo
No photo
 
Sectional chart

 
Airport distance calculator
Flying to Edward Getzelman Airport? Find the distance to fly.

From to 7IL7

Sunrise and sunset
Times for 07-Dec-2022
 Local
(UTC-6)
 Zulu
(UTC)
Morning civil twilight06:3812:38
Sunrise07:1013:10
Sunset16:2122:21
Evening civil twilight16:5322:53

Current date and time
Zulu (UTC)  07-Dec-2022 13:27:54
Local (UTC-6)  07-Dec-2022 07:27:54
 
METAR
KDKB 
14nm SW 
071315Z AUTO 00000KT 1SM BR BKN002 OVC015 01/01 A3020 RMK AO2 T00050005
KDPA 
18nm SE 
071252Z 14003KT 1/4SM R02L/1400FT FG VV002 02/02 A3018 RMK AO2 SLP226 T00220017
K06C 
21nm SE 
071315Z AUTO 00000KT 1/4SM OVC003 02/02 A3019 RMK AO2 T00230023
KARR 
22nm S 
071321Z 00000KT 1 3/4SM BR FEW003 OVC018 01/01 A3019 RMK AO2 T00110006
KRFD 
26nm W 
071254Z 00000KT 5SM BR OVC013 01/M01 A3021 RMK AO2 SLP237 T00111006
TAF
KDPA 
18nm SE 
071120Z 0712/0812 VRB03KT 1/2SM FG OVC003 TEMPO 0712/0714 1/4SM FG VV002 FM071500 33004KT 3SM BR OVC004 FM071800 32008KT P6SM BKN010 FM072100 35006KT P6SM BKN025 FM080200 01005KT P6SM SCT010 BKN020
NOTAMs
Click for the latest NOTAMs
NOTAMs are issued by the DoD/FAA and will open in a separate window not controlled by AirNav.

 

 
 

Would you like to see your business listed on this page?

 If your business provides an interesting product or service to pilots, flight crews, aircraft, or users of the Edward Getzelman Airport, you should consider listing it here.  To start the listing process, click on the button below
 
Add a business
 

Other Pages about Edward Getzelman Airport

Update a link
 
Copyright © AirNav, LLC. All rights reserved. Privacy Policy  Contact